Oliver Springs, Tennessee
Current Conditions -  °F | °C
As of 8:53 PM on Sunday 21 Dec 2014 (Local Time) from KOQT Reporting Station
Overcast Overcast  
Wind Chill: 45°   Ceiling: 4500
Heat Index: 45°   Visibility: 10mi
Dew Point: 36°   Wind: 0mph
Humidity: 71%   Direction: NA
Pressure: 30.11"   Gusts: NA
Location:  36.04°N, 84.34°W
Report Text: KOQT 220153Z AUTO 00000KT 10SM OVC045 07/02 A3011 RMK AO2 SLP206 T00720022
Loading
Personal Weather Stations






























Interactive Weather Map New forecast layout! Learn more

10-Day Weather Forecast

Advertisements
Track Severe Weather on mobile